createdAt,value
2019-03-20T00:00:57.077Z,20.12
2019-03-20T00:03:25.301Z,20.11
2019-03-20T00:05:53.844Z,20.11
2019-03-20T00:08:22.320Z,20.10
2019-03-20T00:10:50.542Z,20.10
2019-03-20T00:13:18.766Z,20.10
2019-03-20T00:15:46.967Z,20.11
2019-03-20T00:18:15.528Z,20.10
2019-03-20T00:20:43.761Z,20.10
2019-03-20T00:23:12.263Z,20.10
2019-03-20T00:25:40.477Z,20.10
2019-03-20T00:28:09.040Z,20.10
2019-03-20T00:30:37.239Z,20.10
2019-03-20T00:33:05.448Z,20.11
2019-03-20T00:35:33.646Z,20.10
2019-03-20T00:38:01.868Z,20.09
2019-03-20T00:40:30.145Z,20.09
2019-03-20T00:42:58.699Z,20.10
2019-03-20T00:45:27.177Z,20.09
2019-03-20T00:47:55.669Z,20.09
2019-03-20T00:50:23.867Z,20.09
2019-03-20T00:52:52.081Z,20.08
2019-03-20T00:55:20.941Z,20.07
2019-03-20T00:57:49.149Z,20.07
2019-03-20T01:00:24.069Z,20.07
2019-03-20T01:02:52.291Z,20.07
2019-03-20T01:05:21.488Z,20.06
2019-03-20T01:07:49.697Z,20.07
2019-03-20T01:10:24.432Z,20.06
2019-03-20T01:12:52.662Z,20.07
2019-03-20T01:15:20.863Z,20.07
2019-03-20T01:17:49.148Z,20.05
2019-03-20T01:20:24.298Z,20.06
2019-03-20T01:22:52.513Z,20.06
2019-03-20T01:25:20.719Z,20.05
2019-03-20T01:27:48.991Z,20.06
2019-03-20T01:30:37.143Z,20.04
2019-03-20T01:33:10.705Z,20.05
2019-03-20T01:35:38.915Z,20.06
2019-03-20T01:38:07.878Z,20.04
2019-03-20T01:40:36.066Z,20.05
2019-03-20T01:43:04.674Z,20.06
2019-03-20T01:45:32.881Z,20.06
2019-03-20T01:48:01.095Z,20.06
2019-03-20T01:50:29.298Z,20.07
2019-03-20T01:52:57.840Z,20.05
2019-03-20T01:55:26.038Z,20.05
2019-03-20T01:57:54.599Z,20.05
2019-03-20T02:00:22.811Z,20.05
2019-03-20T02:02:51.018Z,20.05
2019-03-20T02:05:19.231Z,20.04
2019-03-20T02:07:47.690Z,20.05
2019-03-20T02:10:17.278Z,20.05
2019-03-20T02:12:45.480Z,20.06
2019-03-20T02:15:17.411Z,20.07
2019-03-20T02:17:45.328Z,20.06
2019-03-20T02:20:15.711Z,20.07
2019-03-20T02:22:43.912Z,20.07
2019-03-20T02:25:12.660Z,20.06
2019-03-20T02:27:40.860Z,20.05
2019-03-20T02:30:19.813Z,20.04
2019-03-20T02:32:48.040Z,20.04
2019-03-20T02:35:16.254Z,20.04
2019-03-20T02:37:44.438Z,20.04
2019-03-20T02:40:13.688Z,20.04
2019-03-20T02:42:41.895Z,20.04
2019-03-20T02:45:15.444Z,20.04
2019-03-20T02:47:43.650Z,20.03
2019-03-20T02:50:13.075Z,20.04
2019-03-20T02:52:41.304Z,20.05
2019-03-20T02:55:10.435Z,20.04
2019-03-20T02:57:38.641Z,20.04
2019-03-20T03:00:15.706Z,20.04
2019-03-20T03:02:43.893Z,20.04
2019-03-20T03:05:12.437Z,20.04
2019-03-20T03:07:40.933Z,20.04
2019-03-20T03:10:14.680Z,20.03
2019-03-20T03:12:43.214Z,20.02
2019-03-20T03:15:13.452Z,20.03
2019-03-20T03:17:41.744Z,20.02
2019-03-20T03:20:15.380Z,20.02
2019-03-20T03:22:43.711Z,20.02
2019-03-20T03:25:12.933Z,20.01
2019-03-20T03:27:41.142Z,20.02
2019-03-20T03:30:14.030Z,20.01
2019-03-20T03:32:42.254Z,20.02
2019-03-20T03:35:15.973Z,20.02
2019-03-20T03:37:40.376Z,20.01
2019-03-20T03:40:11.663Z,20.03
2019-03-20T03:42:40.167Z,20.02
2019-03-20T03:45:11.924Z,20.02
2019-03-20T03:47:41.730Z,20.02
2019-03-20T03:50:10.832Z,20.01
2019-03-20T03:52:39.292Z,20.03
2019-03-20T03:55:11.380Z,20.03
2019-03-20T03:57:39.739Z,20.02
2019-03-20T04:00:18.729Z,20.01
2019-03-20T04:02:46.934Z,20.01
2019-03-20T04:05:15.154Z,20.01
2019-03-20T04:07:43.341Z,20.02
2019-03-20T04:10:12.890Z,20.01
2019-03-20T04:12:41.081Z,20.01
2019-03-20T04:15:16.876Z,19.99
2019-03-20T04:17:45.078Z,20.00
2019-03-20T04:20:18.203Z,19.99
2019-03-20T04:22:46.400Z,19.99
2019-03-20T04:25:14.615Z,20.00
2019-03-20T04:27:42.808Z,20.00
2019-03-20T04:30:14.021Z,20.01
2019-03-20T04:32:42.531Z,19.99
2019-03-20T04:35:10.855Z,19.99
2019-03-20T04:37:39.078Z,20.00
2019-03-20T04:40:12.399Z,20.00
2019-03-20T04:42:40.599Z,19.99
2019-03-20T04:45:15.581Z,19.98
2019-03-20T04:47:44.315Z,19.97
2019-03-20T04:50:13.566Z,19.97
2019-03-20T04:52:41.814Z,19.98
2019-03-20T04:55:10.010Z,19.97
2019-03-20T04:57:38.169Z,19.98
2019-03-20T05:00:12.184Z,19.98
2019-03-20T05:02:40.390Z,19.96
2019-03-20T05:05:08.589Z,19.95
2019-03-20T05:07:37.127Z,19.95
2019-03-20T05:10:08.884Z,20.00
2019-03-20T05:12:37.082Z,20.08
2019-03-20T05:15:07.761Z,20.07
2019-03-20T05:17:35.959Z,20.05
2019-03-20T05:20:06.466Z,20.06
2019-03-20T05:22:34.673Z,20.03
2019-03-20T05:25:02.871Z,20.04
2019-03-20T05:27:31.073Z,20.05
2019-03-20T05:29:59.289Z,20.09
2019-03-20T05:32:27.497Z,20.09
2019-03-20T05:34:55.951Z,20.11
2019-03-20T05:37:24.154Z,20.16
2019-03-20T05:39:52.359Z,20.19
2019-03-20T05:42:20.570Z,20.20
2019-03-20T05:44:48.795Z,20.20
2019-03-20T05:47:16.982Z,20.23
2019-03-20T05:49:45.424Z,20.24
2019-03-20T05:52:13.626Z,20.22
2019-03-20T05:54:41.826Z,20.21
2019-03-20T05:57:12.433Z,20.20
2019-03-20T05:59:39.954Z,20.19
2019-03-20T06:02:08.157Z,20.19
2019-03-20T06:04:36.359Z,20.18
2019-03-20T06:07:04.568Z,20.18
2019-03-20T06:09:32.861Z,20.22
2019-03-20T06:12:01.417Z,20.21
2019-03-20T06:14:30.103Z,20.22
2019-03-20T06:16:58.582Z,20.24
2019-03-20T06:19:26.784Z,20.23
2019-03-20T06:21:54.994Z,20.22
2019-03-20T06:24:23.515Z,20.23
2019-03-20T06:26:51.724Z,20.24
2019-03-20T06:29:20.324Z,20.26
2019-03-20T06:31:48.498Z,20.32
2019-03-20T06:34:17.041Z,20.35
2019-03-20T06:36:45.254Z,20.41
2019-03-20T06:39:13.460Z,20.43
2019-03-20T06:41:41.688Z,20.40
2019-03-20T06:44:09.895Z,20.39
2019-03-20T06:46:38.108Z,20.45
2019-03-20T06:49:07.975Z,20.49
2019-03-20T06:51:36.301Z,20.54
2019-03-20T06:54:04.797Z,20.53
2019-03-20T06:56:33.017Z,20.52
2019-03-20T06:59:24.129Z,20.51
2019-03-20T07:01:52.664Z,20.50
2019-03-20T07:04:24.377Z,20.50
2019-03-20T07:06:58.576Z,20.50
2019-03-20T07:09:57.832Z,20.50
2019-03-20T07:12:26.051Z,20.50
2019-03-20T07:14:54.304Z,20.51
2019-03-20T07:17:22.868Z,20.51
2019-03-20T07:19:51.392Z,20.51
2019-03-20T07:22:19.611Z,20.53
2019-03-20T07:24:47.814Z,20.52
2019-03-20T07:27:16.026Z,20.52
2019-03-20T07:29:44.233Z,20.52
2019-03-20T07:32:12.441Z,20.52
2019-03-20T07:34:41.003Z,20.51
2019-03-20T07:37:09.595Z,20.54
2019-03-20T07:39:38.066Z,20.57
2019-03-20T07:42:06.652Z,20.59
2019-03-20T07:44:35.129Z,20.61
2019-03-20T07:47:03.336Z,20.63
2019-03-20T07:49:31.540Z,20.65
2019-03-20T07:51:59.748Z,20.68
2019-03-20T07:54:28.337Z,20.72
2019-03-20T07:56:56.547Z,20.74
2019-03-20T07:59:24.832Z,20.77
2019-03-20T08:01:53.090Z,20.78
2019-03-20T08:04:21.262Z,20.81
2019-03-20T08:06:49.487Z,20.83
2019-03-20T08:09:17.737Z,20.87
2019-03-20T08:11:46.096Z,20.90
2019-03-20T08:14:14.323Z,20.94
2019-03-20T08:16:42.531Z,20.97
2019-03-20T08:19:10.753Z,21.01
2019-03-20T08:21:39.271Z,21.04
2019-03-20T08:24:07.861Z,21.05
2019-03-20T08:26:36.333Z,21.10
2019-03-20T08:29:04.813Z,21.15
2019-03-20T08:31:33.301Z,21.21
2019-03-20T08:34:01.881Z,21.26
2019-03-20T08:36:30.088Z,21.31
2019-03-20T08:38:58.310Z,21.35
2019-03-20T08:41:26.532Z,21.40
2019-03-20T08:43:54.751Z,21.47
2019-03-20T08:46:22.956Z,21.53
2019-03-20T08:48:51.437Z,21.61
2019-03-20T08:51:19.637Z,21.67
2019-03-20T08:53:48.188Z,21.73
2019-03-20T08:56:16.398Z,21.75
2019-03-20T08:58:44.612Z,21.79
2019-03-20T09:01:12.817Z,21.85
2019-03-20T09:03:41.036Z,21.94
2019-03-20T09:06:09.244Z,21.99
2019-03-20T09:08:37.719Z,22.10
2019-03-20T09:11:05.920Z,22.17
2019-03-20T09:13:34.391Z,22.25
2019-03-20T09:16:02.600Z,22.31
2019-03-20T09:18:31.151Z,22.39
2019-03-20T09:20:59.358Z,22.43
2019-03-20T09:23:27.580Z,22.48
2019-03-20T09:25:56.030Z,22.57
2019-03-20T09:28:24.564Z,22.62
2019-03-20T09:30:52.766Z,22.69
2019-03-20T09:33:20.996Z,22.77
2019-03-20T09:35:49.194Z,22.81
2019-03-20T09:38:17.416Z,22.86
2019-03-20T09:40:45.624Z,22.89
2019-03-20T09:43:14.222Z,22.95
2019-03-20T09:45:42.704Z,22.98
2019-03-20T09:48:10.909Z,23.07
2019-03-20T09:50:39.121Z,23.15
2019-03-20T09:53:07.370Z,23.22
2019-03-20T09:55:35.904Z,23.28
2019-03-20T09:58:11.420Z,23.33
2019-03-20T10:00:34.371Z,23.39
2019-03-20T10:03:02.896Z,23.44
2019-03-20T10:05:31.092Z,23.50
2019-03-20T10:07:59.299Z,23.53
2019-03-20T10:10:31.704Z,23.59
2019-03-20T10:13:00.202Z,23.66
2019-03-20T10:15:29.059Z,23.69
2019-03-20T10:17:57.562Z,23.74
2019-03-20T10:20:25.780Z,23.78
2019-03-20T10:22:53.986Z,23.81
2019-03-20T10:25:22.502Z,23.87
2019-03-20T10:27:52.017Z,23.88
2019-03-20T10:30:29.867Z,23.93
2019-03-20T10:32:58.446Z,23.95
2019-03-20T10:35:26.959Z,23.97
2019-03-20T10:37:55.168Z,23.98
2019-03-20T10:40:24.132Z,24.02
2019-03-20T10:42:52.602Z,24.05
2019-03-20T10:45:21.191Z,24.08
2019-03-20T10:47:52.752Z,24.11
2019-03-20T10:50:24.051Z,24.14
2019-03-20T10:52:52.282Z,24.19
2019-03-20T10:55:20.472Z,24.24
2019-03-20T10:57:48.750Z,24.28
2019-03-20T11:00:22.542Z,24.35
2019-03-20T11:02:50.722Z,24.41
2019-03-20T11:05:19.584Z,24.43
2019-03-20T11:07:47.788Z,24.45
2019-03-20T11:10:19.262Z,24.49
2019-03-20T11:12:47.508Z,24.56
2019-03-20T11:15:17.472Z,24.61
2019-03-20T11:17:45.662Z,24.62
2019-03-20T11:20:17.942Z,24.65
2019-03-20T11:22:46.153Z,24.68
2019-03-20T11:25:21.926Z,24.73
2019-03-20T11:27:50.454Z,24.75
2019-03-20T11:30:27.119Z,24.78
2019-03-20T11:32:55.324Z,24.80
2019-03-20T11:35:23.890Z,24.84
2019-03-20T11:37:52.085Z,24.89
2019-03-20T11:40:31.942Z,24.95
2019-03-20T11:43:00.153Z,24.99
2019-03-20T11:45:28.352Z,24.97
2019-03-20T11:47:56.555Z,24.97
2019-03-20T11:50:27.663Z,24.91
2019-03-20T11:52:56.270Z,24.87
2019-03-20T11:55:24.484Z,24.81
2019-03-20T11:57:52.677Z,24.74
2019-03-20T12:00:22.243Z,24.69
2019-03-20T12:02:50.440Z,24.66
2019-03-20T12:05:18.665Z,24.63
2019-03-20T12:07:46.864Z,24.58
2019-03-20T12:10:31.466Z,24.54
2019-03-20T12:12:59.659Z,24.49
2019-03-20T12:15:27.864Z,24.45
2019-03-20T12:17:56.074Z,24.41
2019-03-20T12:20:24.913Z,24.38
2019-03-20T12:22:53.115Z,24.34
2019-03-20T12:25:32.780Z,24.30
2019-03-20T12:28:01.303Z,24.26
2019-03-20T12:30:33.675Z,24.24
2019-03-20T12:33:02.192Z,24.20
2019-03-20T12:35:41.317Z,24.16
2019-03-20T12:38:14.640Z,24.13
2019-03-20T12:40:39.450Z,24.10
2019-03-20T12:43:07.962Z,24.07
2019-03-20T12:45:39.398Z,24.04
2019-03-20T12:48:09.082Z,24.02
2019-03-20T12:50:37.318Z,23.98
2019-03-20T12:53:07.963Z,23.97
2019-03-20T12:55:36.173Z,23.95
2019-03-20T12:58:04.679Z,23.92
2019-03-20T13:00:32.879Z,23.89
2019-03-20T13:03:01.084Z,23.86
2019-03-20T13:05:29.284Z,23.85
2019-03-20T13:08:05.340Z,23.80
2019-03-20T13:10:28.305Z,23.78
2019-03-20T13:12:56.798Z,23.74
2019-03-20T13:15:25.763Z,23.70
2019-03-20T13:17:55.005Z,23.68
2019-03-20T13:20:23.198Z,23.65
2019-03-20T13:22:57.614Z,23.62
2019-03-20T13:25:25.819Z,23.60
2019-03-20T13:27:54.324Z,23.57
2019-03-20T13:30:28.849Z,23.55
2019-03-20T13:32:57.067Z,23.53
2019-03-20T13:35:25.271Z,23.51
2019-03-20T13:37:53.488Z,23.47
2019-03-20T13:40:21.687Z,23.45
2019-03-20T13:42:49.908Z,23.42
2019-03-20T13:45:26.081Z,23.41
2019-03-20T13:47:54.297Z,23.39
2019-03-20T13:50:22.940Z,23.37
2019-03-20T13:52:51.163Z,23.34
2019-03-20T13:55:19.368Z,23.32
2019-03-20T13:57:47.871Z,23.31
2019-03-20T14:00:21.046Z,23.29
2019-03-20T14:02:49.627Z,23.27
2019-03-20T14:05:17.867Z,23.24
2019-03-20T14:07:46.079Z,23.24
2019-03-20T14:10:25.131Z,23.24
2019-03-20T14:12:48.789Z,23.23
2019-03-20T14:15:18.035Z,23.20
2019-03-20T14:17:46.584Z,23.20
2019-03-20T14:20:20.624Z,23.19
2019-03-20T14:22:48.839Z,23.19
2019-03-20T14:25:17.047Z,23.18
2019-03-20T14:27:45.251Z,23.16
2019-03-20T14:30:17.069Z,23.15
2019-03-20T14:32:44.907Z,23.15
2019-03-20T14:35:13.083Z,23.14
2019-03-20T14:37:41.543Z,23.13
2019-03-20T14:40:18.752Z,23.12
2019-03-20T14:42:46.956Z,23.11
2019-03-20T14:45:16.007Z,23.11
2019-03-20T14:47:44.391Z,23.08
2019-03-20T14:50:14.939Z,23.09
2019-03-20T14:52:43.424Z,23.07
2019-03-20T14:55:13.623Z,23.05
2019-03-20T14:57:42.131Z,23.04
2019-03-20T15:00:24.746Z,23.02
2019-03-20T15:02:52.962Z,23.03
2019-03-20T15:05:21.169Z,23.01
2019-03-20T15:07:49.401Z,23.00
2019-03-20T15:10:28.155Z,22.99
2019-03-20T15:12:56.689Z,22.99
2019-03-20T15:15:43.523Z,22.98
2019-03-20T15:18:11.735Z,22.98
2019-03-20T15:20:39.942Z,22.97
2019-03-20T15:23:08.159Z,22.96
2019-03-20T15:25:36.364Z,22.95
2019-03-20T15:28:04.571Z,22.94
2019-03-20T15:30:32.778Z,22.95
2019-03-20T15:33:01.009Z,22.93
2019-03-20T15:35:29.216Z,22.92
2019-03-20T15:37:57.423Z,22.91
2019-03-20T15:40:28.593Z,22.90
2019-03-20T15:42:56.792Z,22.89
2019-03-20T15:45:25.003Z,22.87
2019-03-20T15:47:53.559Z,22.87
2019-03-20T15:50:27.088Z,22.86
2019-03-20T15:52:55.315Z,22.84
2019-03-20T15:55:28.853Z,22.82
2019-03-20T15:57:57.485Z,22.82
2019-03-20T16:00:25.695Z,22.79
2019-03-20T16:03:11.521Z,22.78
2019-03-20T16:05:39.718Z,22.78
2019-03-20T16:08:08.201Z,22.75
2019-03-20T16:10:36.403Z,22.74
2019-03-20T16:13:04.996Z,22.72
2019-03-20T16:15:33.230Z,22.71
2019-03-20T16:18:01.431Z,22.70
2019-03-20T16:20:29.988Z,22.67
2019-03-20T16:22:58.246Z,22.66
2019-03-20T16:25:26.400Z,22.65
2019-03-20T16:27:54.598Z,22.63
2019-03-20T16:30:28.983Z,22.62
2019-03-20T16:32:57.510Z,22.60
2019-03-20T16:35:25.733Z,22.60
2019-03-20T16:37:53.935Z,22.58
2019-03-20T16:40:30.386Z,22.56
2019-03-20T16:42:58.605Z,22.56
2019-03-20T16:45:32.999Z,22.54
2019-03-20T16:48:01.199Z,22.51
2019-03-20T16:50:29.688Z,22.50
2019-03-20T16:52:58.158Z,22.49
2019-03-20T16:55:26.362Z,22.46
2019-03-20T16:57:54.558Z,22.47
2019-03-20T17:00:25.447Z,22.48
2019-03-20T17:02:54.023Z,22.50
2019-03-20T17:05:22.915Z,22.47
2019-03-20T17:07:51.127Z,22.43
2019-03-20T17:10:38.786Z,22.41
2019-03-20T17:13:07.307Z,22.43
2019-03-20T17:15:37.817Z,22.42
2019-03-20T17:18:06.755Z,22.42
2019-03-20T17:20:34.964Z,22.46
2019-03-20T17:23:03.179Z,22.46
2019-03-20T17:25:31.392Z,22.41
2019-03-20T17:27:59.594Z,22.38
2019-03-20T17:30:39.667Z,22.36
2019-03-20T17:33:08.161Z,22.36
2019-03-20T17:35:36.351Z,22.35
2019-03-20T17:38:05.132Z,22.36
2019-03-20T17:40:33.346Z,22.36
2019-03-20T17:43:01.552Z,22.35
2019-03-20T17:45:29.802Z,22.35
2019-03-20T17:47:57.991Z,22.33
2019-03-20T17:50:32.862Z,22.33
2019-03-20T17:53:01.107Z,22.31
2019-03-20T17:55:29.311Z,22.33
2019-03-20T17:57:57.884Z,22.37
2019-03-20T18:00:33.958Z,22.36
2019-03-20T18:03:02.185Z,22.32
2019-03-20T18:05:30.359Z,22.32
2019-03-20T18:07:58.867Z,22.31
2019-03-20T18:10:27.087Z,22.29
2019-03-20T18:12:55.299Z,22.33
2019-03-20T18:15:23.521Z,22.36
2019-03-20T18:17:51.723Z,22.32
2019-03-20T18:20:20.676Z,22.31
2019-03-20T18:22:48.882Z,22.27
2019-03-20T18:25:17.104Z,22.25
2019-03-20T18:27:45.307Z,22.25
2019-03-20T18:30:30.908Z,22.22
2019-03-20T18:32:59.102Z,22.19
2019-03-20T18:35:27.322Z,22.17
2019-03-20T18:37:55.531Z,22.16
2019-03-20T18:40:26.223Z,22.22
2019-03-20T18:42:54.425Z,22.21
2019-03-20T18:45:25.999Z,22.16
2019-03-20T18:47:54.530Z,22.13
2019-03-20T18:50:23.280Z,22.12
2019-03-20T18:52:51.719Z,22.09
2019-03-20T18:55:20.198Z,22.10
2019-03-20T18:57:49.249Z,22.12
2019-03-20T19:00:23.101Z,22.11
2019-03-20T19:02:52.948Z,22.11
2019-03-20T19:05:26.644Z,22.09
2019-03-20T19:07:54.849Z,22.08
2019-03-20T19:10:23.345Z,22.06
2019-03-20T19:12:51.938Z,22.03
2019-03-20T19:15:20.138Z,22.02
2019-03-20T19:17:48.348Z,22.01
2019-03-20T19:20:16.541Z,21.99
2019-03-20T19:22:44.866Z,21.99
2019-03-20T19:25:17.611Z,21.99
2019-03-20T19:27:45.827Z,21.97
2019-03-20T19:30:25.069Z,21.94
2019-03-20T19:32:53.277Z,21.94
2019-03-20T19:35:21.905Z,21.91
2019-03-20T19:37:51.358Z,21.91
2019-03-20T19:40:21.035Z,21.88
2019-03-20T19:42:49.311Z,21.91
2019-03-20T19:45:18.359Z,21.88
2019-03-20T19:47:46.708Z,21.88
2019-03-20T19:50:19.126Z,21.87
2019-03-20T19:52:47.335Z,21.84
2019-03-20T19:55:17.421Z,21.83
2019-03-20T19:57:47.340Z,21.82
2019-03-20T20:00:23.924Z,21.79
2019-03-20T20:02:52.163Z,21.78
2019-03-20T20:05:20.652Z,21.78
2019-03-20T20:07:48.913Z,21.76
2019-03-20T20:10:17.953Z,21.76
2019-03-20T20:12:47.770Z,21.75
2019-03-20T20:15:33.110Z,21.76
2019-03-20T20:18:01.374Z,21.75
2019-03-20T20:20:35.259Z,21.74
2019-03-20T20:23:04.520Z,21.75
2019-03-20T20:25:32.971Z,21.74
2019-03-20T20:28:01.449Z,21.75
2019-03-20T20:30:30.527Z,21.73
2019-03-20T20:32:58.749Z,21.70
2019-03-20T20:35:26.996Z,21.69
2019-03-20T20:37:55.465Z,21.68
2019-03-20T20:40:25.434Z,21.68
2019-03-20T20:42:53.635Z,21.66
2019-03-20T20:45:23.418Z,21.65
2019-03-20T20:47:51.954Z,21.63
2019-03-20T20:50:20.433Z,21.63
2019-03-20T20:52:48.908Z,21.61
2019-03-20T20:55:21.394Z,21.61
2019-03-20T20:57:49.609Z,21.61
2019-03-20T21:00:24.737Z,21.56
2019-03-20T21:02:52.956Z,21.57
2019-03-20T21:05:21.165Z,21.59
2019-03-20T21:07:49.376Z,21.58
2019-03-20T21:10:21.900Z,21.53
2019-03-20T21:12:56.265Z,21.52
2019-03-20T21:15:32.520Z,21.49
2019-03-20T21:18:12.820Z,21.47
2019-03-20T21:20:41.026Z,21.44
2019-03-20T21:23:38.446Z,21.42
2019-03-20T21:26:07.718Z,21.40
2019-03-20T21:29:02.053Z,21.41
2019-03-20T21:31:33.525Z,21.40
2019-03-20T21:34:16.791Z,21.39
2019-03-20T21:36:56.834Z,21.36
2019-03-20T21:39:25.363Z,21.35
2019-03-20T21:42:32.272Z,21.33
2019-03-20T21:45:12.318Z,21.31
2019-03-20T21:47:40.632Z,21.30
2019-03-20T21:50:14.903Z,21.28
2019-03-20T21:52:43.496Z,21.26
2019-03-20T21:55:23.786Z,21.25
2019-03-20T21:58:01.003Z,21.25
2019-03-20T22:00:58.214Z,21.22
2019-03-20T22:03:26.456Z,21.21
2019-03-20T22:06:03.744Z,21.20
2019-03-20T22:08:32.227Z,21.18
2019-03-20T22:11:20.458Z,21.16
2019-03-20T22:13:52.076Z,21.16
2019-03-20T22:16:42.894Z,21.16
2019-03-20T22:19:41.410Z,21.16
2019-03-20T22:22:40.425Z,21.15
2019-03-20T22:25:23.559Z,21.15
2019-03-20T22:28:04.089Z,21.13
2019-03-20T22:30:32.304Z,21.12
2019-03-20T22:33:23.337Z,21.10
2019-03-20T22:35:51.953Z,21.07
2019-03-20T22:38:23.451Z,21.09
2019-03-20T22:41:12.522Z,21.07
2019-03-20T22:43:46.788Z,21.07
2019-03-20T22:46:30.285Z,21.06
2019-03-20T22:49:13.608Z,21.03
2019-03-20T22:51:54.262Z,21.02
2019-03-20T22:54:49.352Z,20.99
2019-03-20T22:57:27.998Z,21.01
2019-03-20T22:59:56.200Z,21.00
2019-03-20T23:02:36.677Z,21.00
2019-03-20T23:05:08.432Z,20.98
2019-03-20T23:07:36.943Z,20.98
2019-03-20T23:10:11.185Z,20.96
2019-03-20T23:12:39.383Z,20.96
2019-03-20T23:15:18.535Z,20.96
2019-03-20T23:17:46.741Z,20.94
2019-03-20T23:20:21.192Z,20.93
2019-03-20T23:22:49.563Z,20.92
2019-03-20T23:25:17.766Z,20.91
2019-03-20T23:27:45.974Z,20.90
2019-03-20T23:30:17.475Z,20.90
2019-03-20T23:32:45.694Z,20.90
2019-03-20T23:35:13.902Z,20.89
2019-03-20T23:37:42.110Z,20.88
2019-03-20T23:40:13.154Z,20.88
2019-03-20T23:42:42.490Z,20.87
2019-03-20T23:45:16.448Z,20.85
2019-03-20T23:47:47.912Z,20.85
2019-03-20T23:50:16.130Z,20.85
2019-03-20T23:52:44.334Z,20.85
2019-03-20T23:55:13.383Z,20.86
2019-03-20T23:57:41.593Z,20.84
